Latest Weather Observations for Jandakot

IDW60901

Issued at 1:21 pm WST Tuesday 27 September 2016 (issued every 10 minutes, with the page automatically refreshed every 10 minutes)

About weather observations | Map of Perth area stations | Latest observations for Perth area | Other Formats
Station Details ID: 009172 Name: JANDAKOT AERO Lat: -32.10 Lon: 115.88 Height: 30.0 m
Data from the previous 72 hours. | See also: Recent months at Jandakot
Date/Time
WST
Temp
°C
App
Temp
°C
Dew
Point
°C
Rel
Hum
%
Delta-T
°C
Wind Press
QNH
hPa
Press
MSL
hPa
Rain since
9am
mm
Dir  Spd
km/h
Gust
km/h
Spd
kts
Gust
kts
27/01:03pm 14.9 9.0 12.5 85 1.3 WNW 35 57 19 31 1010.3 1010.3 2.2
27/01:00pm 14.7 8.7 12.1 84 1.4 WNW 35 46 19 25 1010.3 1010.3 2.2
27/12:30pm 15.4 9.9 11.9 79 1.9 W 32 56 17 30 1010.8 1010.8 1.6
27/12:01pm 15.8 9.1 10.9 72 2.6 W 37 56 20 30 1011.5 1011.5 0.2
27/12:00pm 16.4 9.2 10.6 68 3.1 W 39 56 21 30 1011.4 1011.4 0.0
27/11:32am 19.2 10.6 8.2 49 5.7 WNW 43 61 23 33 1011.4 1011.4 0.0
27/11:30am 19.2 10.9 9.4 53 5.2 WNW 43 57 23 31 1011.4 1011.4 0.0
27/11:00am 18.8 10.4 9.1 53 5.1 WNW 43 57 23 31 1011.9 1011.9 0.0
27/10:30am 18.3 11.6 10.9 62 4.0 WNW 37 56 20 30 1012.2 1012.2 0.0
27/10:26am 18.8 12.2 11.5 62 4.0 WNW 37 56 20 30 1012.3 1012.3 0.0
27/10:00am 18.4 12.0 10.8 61 4.1 WNW 35 46 19 25 1012.6 1012.6 0.0
27/09:30am 17.8 10.4 9.9 60 4.2 WNW 39 48 21 26 1013.1 1013.1 0.0
27/09:00am 17.4 12.3 10.7 65 3.6 WNW 28 37 15 20 1013.6 1013.6 5.0
27/08:30am 16.1 13.7 12.5 79 2.0 W 17 30 9 16 1013.8 1013.8 5.0
27/08:00am 14.7 10.6 11.5 81 1.7 W 24 35 13 19 1014.1 1014.1 4.8
27/07:30am 15.1 12.1 12.5 84 1.4 WNW 20 35 11 19 1014.1 1014.1 4.8
27/07:00am 15.1 12.0 12.2 83 1.6 WNW 20 28 11 15 1014.1 1014.1 4.8
27/06:30am 13.7 11.7 11.6 87 1.1 NW 13 19 7 10 1014.3 1014.3 4.8
27/06:00am 13.8 10.8 11.9 88 1.0 WNW 19 24 10 13 1014.4 1014.4 4.8
27/05:30am 13.9 11.9 11.5 85 1.3 NW 13 17 7 9 1014.5 1014.5 4.8
27/05:00am 13.6 11.3 11.7 88 1.0 WNW 15 20 8 11 1014.8 1014.8 4.8
27/04:30am 13.4 11.3 11.3 87 1.1 NNW 13 17 7 9 1015.0 1015.0 4.8
27/04:00am 13.6 10.7 11.1 85 1.3 NW 17 20 9 11 1015.1 1015.1 4.8
27/03:30am 13.5 10.8 11.8 89 0.9 NW 17 20 9 11 1015.3 1015.3 4.8
27/03:00am 13.8 11.7 11.2 84 1.4 NW 13 17 7 9 1015.7 1015.7 4.6
27/02:30am 13.8 10.8 10.8 82 1.6 WNW 17 20 9 11 1016.1 1016.1 4.6
27/02:00am 13.8 11.1 11.7 87 1.1 W 17 24 9 13 1016.6 1016.6 4.6
27/01:30am 14.0 11.6 12.7 92 0.7 W 17 22 9 12 1017.0 1017.0 4.6
27/01:00am 13.4 14.3 12.9 97 0.3 CALM 0 6 0 3 1017.2 1017.2 4.6
27/12:30am 13.6 13.2 12.9 95 0.4 WNW 7 11 4 6 1017.4 1017.4 4.4
27/12:00am 13.8 12.1 12.3 91 0.8 SW 13 15 7 8 1017.8 1017.8 0.8
 
Date/Time
WST
Temp
°C
App
Temp
°C
Dew
Point
°C
Rel
Hum
%
Delta-T
°C
Wind Press
QNH
hPa
Press
MSL
hPa
Rain since
9am
mm
Dir  Spd
km/h
Gust
km/h
Spd
kts
Gust
kts
26/11:30pm 14.0 11.8 12.0 88 1.1 NW 15 19 8 10 1018.0 1018.0 0.6
26/11:00pm 13.6 11.7 11.7 88 1.0 NW 13 19 7 10 1018.3 1018.3 0.6
26/10:30pm 13.6 11.7 11.9 89 0.9 W 13 19 7 10 1018.7 1018.7 0.6
26/10:00pm 13.6 10.5 12.3 92 0.7 WSW 20 32 11 17 1019.1 1019.1 0.4
26/09:30pm 14.6 13.3 11.4 81 1.7 WNW 9 13 5 7 1018.9 1018.9 0.4
26/09:00pm 13.9 12.8 12.0 88 1.0 W 9 11 5 6 1018.9 1018.9 0.2
26/08:30pm 14.6 14.0 12.2 85 1.3 WSW 7 11 4 6 1018.9 1018.9 0.2
26/08:00pm 15.0 12.3 11.7 80 1.8 NW 17 22 9 12 1018.8 1018.8 0.2
26/07:30pm 14.6 12.3 11.6 82 1.6 NW 15 20 8 11 1018.7 1018.7 0.2
26/07:00pm 14.6 12.3 11.6 82 1.6 WNW 15 20 8 11 1018.6 1018.6 0.2
26/06:30pm 14.7 12.0 11.7 82 1.6 WNW 17 22 9 12 1018.6 1018.6 0.2
26/06:00pm 15.1 12.3 11.2 77 2.1 WNW 17 20 9 11 1018.6 1018.6 0.2
26/05:30pm 15.0 11.9 11.7 80 1.8 W 19 24 10 13 1018.8 1018.8 0.2
26/05:00pm 14.9 10.9 11.9 82 1.6 W 24 35 13 19 1018.9 1018.9 0.2
26/04:30pm 16.3 11.8 10.2 67 3.2 WNW 24 33 13 18 1018.6 1018.6 0.0
26/04:00pm 16.0 11.1 9.9 67 3.2 WNW 26 35 14 19 1018.7 1018.7 0.0
26/03:30pm 16.6 12.0 9.5 63 3.7 WNW 24 33 13 18 1018.7 1018.7 0.0
26/03:00pm 16.4 11.6 9.0 61 3.8 WNW 24 37 13 20 1018.8 1018.8 0.0
26/02:30pm 16.5 12.2 9.4 63 3.7 NW 22 30 12 16 1018.8 1018.8 0.0
26/02:00pm 16.2 12.1 8.8 61 3.8 W 20 30 11 16 1019.2 1019.2 0.0
26/01:30pm 16.4 11.5 8.3 58 4.1 W 24 32 13 17 1019.4 1019.4 0.0
26/01:00pm 15.9 10.6 8.6 62 3.7 NW 26 32 14 17 1019.7 1019.7 0.0
26/12:30pm 16.1 10.1 8.6 61 3.8 WNW 30 37 16 20 1020.2 1020.2 0.0
26/12:00pm 14.4 10.1 10.8 79 1.9 WNW 24 35 13 19 1020.6 1020.6 0.0
26/11:30am 15.7 9.8 7.7 59 4.0 WNW 28 35 15 19 1020.5 1020.5 0.0
26/11:00am 16.1 10.8 6.7 53 4.6 WNW 24 32 13 17 1020.6 1020.6 0.0
26/10:30am 16.3 11.7 6.5 52 4.8 WNW 20 32 11 17 1020.9 1020.9 0.0
26/10:00am 15.9 11.7 5.7 50 4.9 WNW 17 30 9 16 1021.2 1021.2 0.0
26/09:30am 13.2 10.3 6.7 64 3.1 N 11 15 6 8 1021.3 1021.3 0.0
26/09:00am 12.4 9.5 6.3 66 2.9 N 11 15 6 8 1021.1 1021.1 0.0
26/08:30am 11.4 8.1 6.5 72 2.3 N 13 15 7 8 1021.1 1021.1 0.0
26/08:00am 10.3 7.0 6.4 77 1.8 NNE 13 17 7 9 1020.9 1020.9 0.0
26/07:30am 8.7 5.8 6.5 86 1.0 NNE 11 15 6 8 1020.9 1020.9 0.0
26/07:00am 7.1 3.7 5.8 91 0.6 NNE 13 19 7 10 1020.8 1020.8 0.0
26/06:30am 6.1 2.5 5.2 94 0.4 NNE 13 13 7 7 1020.7 1020.7 0.0
26/06:00am 5.7 2.4 4.8 94 0.4 NNE 11 15 6 8 1020.5 1020.5 0.0
26/05:30am 4.2 1.5 3.7 97 0.2 NNE 7 9 4 5 1020.3 1020.3 0.0
26/05:00am 4.0 1.2 3.3 95 0.3 NNE 7 11 4 6 1020.2 1020.2 0.0
26/04:30am 3.8 1.2 3.3 97 0.2 NNE 6 7 3 4 1020.1 1020.1 0.0
26/04:00am 3.5 2.0 2.8 95 0.3 CALM 0 6 0 3 1020.2 1020.2 0.0
26/03:30am 3.5 2.0 2.8 95 0.3 CALM 0 0 0 0 1020.4 1020.4 0.0
26/03:00am 3.1 1.1 2.3 94 0.3 NNE 2 7 1 4 1020.2 1020.2 0.0
26/02:30am 4.0 2.5 3.0 93 0.4 CALM 0 0 0 0 1020.2 1020.2 0.0
26/02:00am 4.5 3.1 3.5 93 0.4 CALM 0 0 0 0 1020.5 1020.5 0.0
26/01:30am 4.2 2.7 3.0 92 0.5 CALM 0 0 0 0 1020.5 1020.5 0.0
26/01:00am 4.3 2.9 3.3 93 0.4 CALM 0 0 0 0 1020.6 1020.6 0.0
26/12:30am 4.9 3.5 3.4 90 0.6 CALM 0 0 0 0 1021.1 1021.1 0.0
26/12:00am 4.6 3.3 3.9 95 0.3 CALM 0 0 0 0 1021.1 1021.1 0.0
 
Date/Time
WST
Temp
°C
App
Temp
°C
Dew
Point
°C
Rel
Hum
%
Delta-T
°C
Wind Press
QNH
hPa
Press
MSL
hPa
Rain since
9am
mm
Dir  Spd
km/h
Gust
km/h
Spd
kts
Gust
kts
25/11:30pm 5.4 4.1 4.0 91 0.6 CALM 0 0 0 0 1021.4 1021.4 0.0
25/11:00pm 5.9 4.3 4.5 91 0.6 S 2 6 1 3 1021.2 1021.2 0.0
25/10:30pm 6.3 3.7 4.2 86 0.9 S 7 7 4 4 1021.2 1021.2 0.0
25/10:00pm 6.5 4.1 4.2 85 1.0 S 6 7 3 4 1021.3 1021.3 0.0
25/09:30pm 8.2 7.0 4.5 77 1.6 CALM 0 0 0 0 1021.4 1021.4 0.0
25/09:00pm 9.1 5.9 5.1 76 1.8 S 11 11 6 6 1021.4 1021.4 0.0
25/08:30pm 9.9 6.6 4.8 70 2.3 S 11 13 6 7 1021.2 1021.2 0.0
25/08:00pm 11.0 7.3 4.3 63 3.0 SSW 13 17 7 9 1021.3 1021.3 0.0
25/07:30pm 11.6 7.8 3.7 58 3.5 SSW 13 17 7 9 1020.9 1020.9 0.0
25/07:00pm 11.9 7.6 3.3 55 3.8 SSW 15 20 8 11 1020.5 1020.5 0.0
25/06:30pm 12.5 7.8 2.9 52 4.2 SSW 17 26 9 14 1020.2 1020.2 0.0
25/06:00pm 13.3 8.1 2.3 47 4.8 SW 19 28 10 15 1019.8 1019.8 0.0
25/05:30pm 13.9 7.4 2.6 46 5.0 SW 26 35 14 19 1019.5 1019.5 0.0
25/05:00pm 14.4 7.1 2.4 44 5.3 SW 30 37 16 20 1019.2 1019.2 0.0
25/04:30pm 15.0 7.9 3.3 45 5.3 SSW 30 39 16 21 1018.8 1018.8 0.0
25/04:00pm 15.4 8.6 3.3 44 5.5 SW 28 43 15 23 1018.5 1018.5 0.0
25/03:30pm 16.1 9.8 4.0 44 5.6 SW 26 33 14 18 1018.2 1018.2 0.0
25/03:00pm 16.1 9.5 4.0 44 5.6 WSW 28 39 15 21 1018.0 1018.0 0.0
25/02:30pm 16.4 11.5 3.9 43 5.8 SW 19 28 10 15 1017.7 1017.7 0.0
25/02:00pm 16.6 12.5 4.2 43 5.8 SW 15 28 8 15 1017.8 1017.8 0.0
25/01:30pm 15.6 11.0 3.6 44 5.5 SSW 17 26 9 14 1017.9 1017.9 0.0
25/01:00pm 15.7 12.0 4.6 47 5.2 S 13 28 7 15 1018.2 1018.2 0.0
25/12:30pm 15.2 10.4 4.7 49 4.9 S 19 28 10 15 1018.5 1018.5 0.0
25/12:00pm 15.5 11.2 5.4 51 4.8 S 17 24 9 13 1018.8 1018.8 0.0
25/11:30am 14.1 9.3 4.6 52 4.4 SSW 19 28 10 15 1018.9 1018.9 0.0
25/11:00am 14.1 9.8 5.1 54 4.2 S 17 26 9 14 1018.8 1018.8 0.0
25/10:30am 13.8 9.7 6.0 59 3.7 S 17 24 9 13 1018.7 1018.7 0.0
25/10:00am 13.4 8.8 6.5 63 3.3 SSE 20 28 11 15 1018.8 1018.8 0.0
25/09:30am 13.1 8.2 7.1 67 2.9 SSE 22 32 12 17 1018.6 1018.6 0.0
25/09:00am 11.9 7.4 7.1 72 2.3 S 20 28 11 15 1018.5 1018.5 20.8
25/08:30am 11.6 7.3 7.9 78 1.8 SSE 20 26 11 14 1018.2 1018.2 20.8
25/08:00am 10.9 6.5 9.1 89 0.9 SSE 22 28 12 15 1017.8 1017.8 20.8
25/07:30am 10.5 6.9 9.9 96 0.3 S 19 28 10 15 1017.4 1017.4 20.8
25/07:02am 10.0 6.7 9.4 96 0.3 S 17 24 9 13 1017.0 1017.0 20.8
25/07:00am 9.9 6.2 9.5 97 0.2 S 19 24 10 13 1017.0 1017.0 20.8
25/06:50am 9.9 6.2 9.5 97 0.2 S 19 26 10 14 1016.8 1016.8 20.8
25/06:30am 10.0 8.2 9.6 97 0.2 S 9 13 5 7 1016.1 1016.1 20.2
25/06:00am 9.6 9.5 9.4 99 0.1 CALM 0 4 0 2 1015.5 1015.5 20.0
25/05:30am 9.2 7.6 8.8 97 0.2 NE 7 9 4 5 1015.1 1015.1 19.6
25/05:00am 9.6 8.2 9.4 99 0.1 NNE 7 9 4 5 1014.9 1014.9 19.6
25/04:30am 9.9 8.1 9.5 97 0.2 N 9 11 5 6 1014.9 1014.9 19.4
25/04:00am 10.0 7.5 9.8 99 0.1 NNE 13 15 7 8 1014.7 1014.7 19.4
25/03:30am 10.1 9.0 9.9 99 0.1 NNE 6 9 3 5 1014.7 1014.7 18.8
25/03:00am 10.1 7.6 9.7 97 0.2 NNE 13 15 7 8 1014.7 1014.7 17.6
25/02:30am 10.1 8.0 9.7 97 0.2 NE 11 15 6 8 1014.7 1014.7 15.4
25/02:00am 10.2 7.7 9.6 96 0.3 N 13 17 7 9 1014.8 1014.8 11.8
25/01:30am 10.2 8.1 9.8 97 0.2 NE 11 13 6 7 1014.6 1014.6 9.2
25/01:00am 10.4 8.4 10.0 97 0.2 NNE 11 15 6 8 1014.6 1014.6 7.8
25/12:37am 10.3 8.9 9.7 96 0.3 E 7 13 4 7 1014.7 1014.7 6.6
25/12:30am 10.5 9.3 9.7 95 0.4 SSE 6 7 3 4 1014.8 1014.8 5.8
25/12:23am 10.5 9.8 9.9 96 0.3 SW 4 9 2 5 1014.8 1014.8 4.8
25/12:00am 10.6 9.5 9.8 95 0.4 NE 6 11 3 6 1014.8 1014.8 1.6
 
Date/Time
WST
Temp
°C
App
Temp
°C
Dew
Point
°C
Rel
Hum
%
Delta-T
°C
Wind Press
QNH
hPa
Press
MSL
hPa
Rain since
9am
mm
Dir  Spd
km/h
Gust
km/h
Spd
kts
Gust
kts
24/11:30pm 10.6 9.3 9.2 91 0.7 ENE 6 11 3 6 1014.7 1014.7 1.4
24/11:00pm 10.6 8.7 9.0 90 0.8 E 9 13 5 7 1014.9 1014.9 0.8
24/10:30pm 11.6 8.8 8.6 82 1.5 ESE 13 28 7 15 1015.2 1015.2 0.0
24/10:00pm 11.5 9.7 8.0 79 1.7 NE 7 11 4 6 1015.1 1015.1 0.0
24/09:30pm 11.1 8.5 7.8 80 1.6 NNE 11 13 6 7 1015.2 1015.2 0.0
24/09:00pm 10.6 8.2 7.2 79 1.6 NNE 9 9 5 5 1015.2 1015.2 0.0
24/08:30pm 11.8 9.5 7.5 75 2.1 N 9 11 5 6 1015.2 1015.2 0.0
24/08:00pm 11.9 9.2 7.3 73 2.2 N 11 13 6 7 1015.2 1015.2 0.0
24/07:30pm 11.5 9.3 7.8 78 1.8 N 9 13 5 7 1015.2 1015.2 0.0
24/07:00pm 11.7 10.1 8.7 82 1.5 NNW 7 11 4 6 1015.2 1015.2 0.0
24/06:30pm 12.3 9.9 8.7 79 1.8 NW 11 17 6 9 1015.1 1015.1 0.0
24/06:00pm 13.7 10.1 6.6 62 3.4 NW 15 20 8 11 1015.0 1015.0 0.0
24/05:30pm 14.3 9.7 5.7 56 4.1 WNW 19 26 10 14 1014.8 1014.8 0.0
24/05:00pm 15.2 10.4 5.8 53 4.5 WNW 20 28 11 15 1014.7 1014.7 0.0
24/04:30pm 14.8 10.1 6.1 56 4.2 WNW 20 32 11 17 1014.8 1014.8 0.0
24/04:00pm 15.7 11.8 7.0 56 4.3 WNW 17 24 9 13 1014.6 1014.6 0.0
24/03:30pm 14.9 11.8 7.4 61 3.7 WSW 13 20 7 11 1014.8 1014.8 0.0
24/03:00pm 14.4 9.4 6.5 59 3.8 W 22 28 12 15 1015.0 1015.0 0.0
24/02:30pm 15.2 10.0 5.5 52 4.6 WNW 22 32 12 17 1015.0 1015.0 0.0
24/02:00pm 15.3 10.4 4.9 50 4.9 NW 20 37 11 20 1015.2 1015.2 0.0
24/01:30pm 15.8 11.4 4.8 48 5.2 NW 17 30 9 16 1015.4 1015.4 0.0

Latest Capital City Observations: Canberra | Sydney | Melbourne | Brisbane | Adelaide | Perth | Hobart | Darwin

Other Formats:

Comma delimited format used in spreadsheet applications
http://www.bom.gov.au/fwo/IDW60901/IDW60901.94609.axf

JavaScript Object Notation format (JSON) in row-major order
http://www.bom.gov.au/fwo/IDW60901/IDW60901.94609.json